• Join FlightAware (Why Join?)
  • Login
  • US Flag GB Flag 
06:57 EST


 

Airport Tracker/Info


-or-


 

Live Flight TrackerFlight Track Log ✈ GJS3615 ✈ 30-Apr-2013 ✈ KMSN - KORD

Flight Track Log - Related Links

Times and Time Zones

All times are in EDT time to prevent confusion due to time zone crossing. See the GJS3615 flight status page for this flight to view local times or setup timezone preferences in your user account.

Time Position Orientation Groundspeed Altitude Reporting Facility
EDT Latitude Longitude Course Direction KTS MPH feet Rate Location/Type
08:27 43.0550 -89.3200 164° South 185 213 4,400  Level Chicago Center
08:28 42.9872 -89.2900 162° South 234 269 7,400 2,806 Climbing Chicago Center
08:29 42.8648 -89.2167 180° South  Level FlightAware Approximate
08:29 42.9192 -89.2608 163° South 255 293 10,200  Level Chicago Center
08:30 42.7954 -89.2015 164° South  Level FlightAware Approximate
08:30 42.8483 -89.2278 161° South 266 306 12,900  Level Chicago Center
08:31 42.7272 -89.1742 164° South  Level FlightAware Approximate
08:31 42.7819 -89.1289 132° Southeast 302 348 13,100  Level Chicago Center
08:32 42.6535 -89.1447 164° South  Level FlightAware Approximate
08:32 42.7269 -89.0422 131° Southeast 304 350 13,100  Level Chicago Center
08:33 42.6725 -88.9575 131° Southeast 300 345 12,700 -677 Descending Chicago Center
08:34 42.6167 -88.8717 131° Southeast 302 348 11,700 -919 Descending Chicago Center
08:35 42.5628 -88.7881 131° Southeast 298 343 10,800 -871 Descending Chicago Center
08:37 42.4986 -88.6894 131° Southeast 299 344 9,900 -780 Descending Chicago Center
08:38 42.4436 -88.6058 132° Southeast 297 342 9,200 -439 Descending Chicago Center
08:39 42.3925 -88.5256 131° Southeast 284 327 9,000 -290 Descending Chicago Center
08:40 42.3706 -88.4194 106° East 299 344 8,600 -726 Descending Chicago Center
08:41 42.3269 -88.3186 120° Southeast 289 333 7,500 -774 Descending Chicago Center
08:42 42.2700 -88.2497 138° Southeast 278 320 7,000 -387 Descending Chicago Center
08:43 42.2200 -88.1864 137° Southeast 258 297 6,700 -927 Descending Chicago Center
08:44 42.1678 -88.1317 142° Southeast 244 281 5,100 -1,366 Descending Chicago Center
08:45 42.1200 -88.0797 141° Southeast 228 262 3,900 -1,113 Descending Chicago Center
08:46 42.0736 -88.0267 140° Southeast 224 258 2,800 -1,065 Descending Chicago Center